sensor_id;sensor_type;location;lat;lon;timestamp;temperature;humidity
78550;DHT22;68091;52.130;5.570;2023-09-18T00:00:40;17.50;99.90
78550;DHT22;68091;52.130;5.570;2023-09-18T00:03:08;17.40;99.90
78550;DHT22;68091;52.130;5.570;2023-09-18T00:05:33;17.40;99.90
78550;DHT22;68091;52.130;5.570;2023-09-18T00:07:59;17.40;99.90
78550;DHT22;68091;52.130;5.570;2023-09-18T00:10:25;17.50;99.90
78550;DHT22;68091;52.130;5.570;2023-09-18T00:12:51;17.50;99.90
78550;DHT22;68091;52.130;5.570;2023-09-18T00:15:16;17.40;99.90
78550;DHT22;68091;52.130;5.570;2023-09-18T00:17:42;17.50;99.90
78550;DHT22;68091;52.130;5.570;2023-09-18T00:20:07;17.40;99.90
78550;DHT22;68091;52.130;5.570;2023-09-18T00:22:34;17.40;99.90
78550;DHT22;68091;52.130;5.570;2023-09-18T00:25:00;17.30;99.90
78550;DHT22;68091;52.130;5.570;2023-09-18T00:27:26;17.30;99.90
78550;DHT22;68091;52.130;5.570;2023-09-18T00:29:52;17.40;99.90
78550;DHT22;68091;52.130;5.570;2023-09-18T00:32:17;17.30;99.90
78550;DHT22;68091;52.130;5.570;2023-09-18T00:34:43;17.30;99.90
78550;DHT22;68091;52.130;5.570;2023-09-18T00:37:09;17.30;99.90
78550;DHT22;68091;52.130;5.570;2023-09-18T00:39:37;17.30;99.90
78550;DHT22;68091;52.130;5.570;2023-09-18T00:42:03;17.30;99.90
78550;DHT22;68091;52.130;5.570;2023-09-18T00:44:28;17.30;99.90
78550;DHT22;68091;52.130;5.570;2023-09-18T00:46:54;17.30;99.90
78550;DHT22;68091;52.130;5.570;2023-09-18T00:49:21;17.30;99.90
78550;DHT22;68091;52.130;5.570;2023-09-18T00:51:47;17.40;99.90
78550;DHT22;68091;52.130;5.570;2023-09-18T00:54:14;17.40;99.90
78550;DHT22;68091;52.130;5.570;2023-09-18T00:56:40;17.40;99.90
78550;DHT22;68091;52.130;5.570;2023-09-18T00:59:06;17.40;99.90
78550;DHT22;68091;52.130;5.570;2023-09-18T01:01:32;17.40;99.90
78550;DHT22;68091;52.130;5.570;2023-09-18T01:03:57;17.40;99.90
78550;DHT22;68091;52.130;5.570;2023-09-18T01:06:26;17.60;99.90
78550;DHT22;68091;52.130;5.570;2023-09-18T01:08:55;17.40;99.90
78550;DHT22;68091;52.130;5.570;2023-09-18T01:13:54;17.40;99.90
78550;DHT22;68091;52.130;5.570;2023-09-18T01:16:27;17.40;99.90
78550;DHT22;68091;52.130;5.570;2023-09-18T01:18:56;17.50;99.90
78550;DHT22;68091;52.130;5.570;2023-09-18T01:21:21;17.50;99.90
78550;DHT22;68091;52.130;5.570;2023-09-18T01:23:47;17.50;99.90
78550;DHT22;68091;52.130;5.570;2023-09-18T01:26:14;17.60;99.90
78550;DHT22;68091;52.130;5.570;2023-09-18T01:28:40;17.60;99.90
78550;DHT22;68091;52.130;5.570;2023-09-18T01:31:08;17.70;99.90
78550;DHT22;68091;52.130;5.570;2023-09-18T01:33:34;17.70;99.90
78550;DHT22;68091;52.130;5.570;2023-09-18T01:36:01;17.70;99.90
78550;DHT22;68091;52.130;5.570;2023-09-18T01:38:29;17.80;99.90
78550;DHT22;68091;52.130;5.570;2023-09-18T01:40:54;17.80;99.90
78550;DHT22;68091;52.130;5.570;2023-09-18T01:43:20;17.80;99.90
78550;DHT22;68091;52.130;5.570;2023-09-18T01:45:46;17.80;99.90
78550;DHT22;68091;52.130;5.570;2023-09-18T01:48:16;17.80;99.90
78550;DHT22;68091;52.130;5.570;2023-09-18T01:50:42;18.00;99.90
78550;DHT22;68091;52.130;5.570;2023-09-18T01:53:07;17.90;99.90
78550;DHT22;68091;52.130;5.570;2023-09-18T01:55:33;17.80;99.90
78550;DHT22;68091;52.130;5.570;2023-09-18T01:57:59;17.90;99.90
78550;DHT22;68091;52.130;5.570;2023-09-18T02:00:27;17.90;99.90
78550;DHT22;68091;52.130;5.570;2023-09-18T02:02:52;17.90;99.90
78550;DHT22;68091;52.130;5.570;2023-09-18T02:05:18;17.90;99.90
78550;DHT22;68091;52.130;5.570;2023-09-18T02:07:43;18.00;99.90
78550;DHT22;68091;52.130;5.570;2023-09-18T02:10:09;18.00;99.90
78550;DHT22;68091;52.130;5.570;2023-09-18T02:12:34;18.00;99.90
78550;DHT22;68091;52.130;5.570;2023-09-18T02:15:03;18.00;99.90
78550;DHT22;68091;52.130;5.570;2023-09-18T02:17:31;17.90;99.90
78550;DHT22;68091;52.130;5.570;2023-09-18T02:19:57;18.00;99.90
78550;DHT22;68091;52.130;5.570;2023-09-18T02:22:22;18.00;99.90
78550;DHT22;68091;52.130;5.570;2023-09-18T02:24:48;18.10;99.90
78550;DHT22;68091;52.130;5.570;2023-09-18T02:27:13;18.20;99.90
78550;DHT22;68091;52.130;5.570;2023-09-18T02:29:39;18.20;99.90
78550;DHT22;68091;52.130;5.570;2023-09-18T02:32:04;18.20;99.90
78550;DHT22;68091;52.130;5.570;2023-09-18T02:34:30;18.20;99.90
78550;DHT22;68091;52.130;5.570;2023-09-18T02:36:56;18.20;99.90
78550;DHT22;68091;52.130;5.570;2023-09-18T02:39:22;18.30;99.90
78550;DHT22;68091;52.130;5.570;2023-09-18T02:41:47;18.30;99.90
78550;DHT22;68091;52.130;5.570;2023-09-18T02:44:13;18.20;99.90
78550;DHT22;68091;52.130;5.570;2023-09-18T02:46:39;18.20;99.90
78550;DHT22;68091;52.130;5.570;2023-09-18T02:49:05;18.20;99.90
78550;DHT22;68091;52.130;5.570;2023-09-18T02:51:30;18.20;99.90
78550;DHT22;68091;52.130;5.570;2023-09-18T02:53:57;18.20;99.90
78550;DHT22;68091;52.130;5.570;2023-09-18T02:56:22;18.20;99.90
78550;DHT22;68091;52.130;5.570;2023-09-18T02:58:48;18.20;99.90
78550;DHT22;68091;52.130;5.570;2023-09-18T03:01:14;18.20;99.90
78550;DHT22;68091;52.130;5.570;2023-09-18T03:03:39;18.20;99.90
78550;DHT22;68091;52.130;5.570;2023-09-18T03:06:07;18.20;99.90
78550;DHT22;68091;52.130;5.570;2023-09-18T03:08:32;18.20;99.90
78550;DHT22;68091;52.130;5.570;2023-09-18T03:11:10;18.20;99.90
78550;DHT22;68091;52.130;5.570;2023-09-18T03:13:36;18.10;99.90
78550;DHT22;68091;52.130;5.570;2023-09-18T03:16:01;18.10;99.90
78550;DHT22;68091;52.130;5.570;2023-09-18T03:18:27;18.00;99.90
78550;DHT22;68091;52.130;5.570;2023-09-18T03:20:52;18.00;99.90
78550;DHT22;68091;52.130;5.570;2023-09-18T03:23:18;17.90;99.90
78550;DHT22;68091;52.130;5.570;2023-09-18T03:25:47;17.90;99.90
78550;DHT22;68091;52.130;5.570;2023-09-18T03:28:12;17.90;99.90
78550;DHT22;68091;52.130;5.570;2023-09-18T03:30:38;17.80;99.90
78550;DHT22;68091;52.130;5.570;2023-09-18T03:33:04;17.80;99.90
78550;DHT22;68091;52.130;5.570;2023-09-18T03:35:31;17.70;99.90
78550;DHT22;68091;52.130;5.570;2023-09-18T03:37:57;17.70;99.90
78550;DHT22;68091;52.130;5.570;2023-09-18T03:40:23;17.70;99.90
78550;DHT22;68091;52.130;5.570;2023-09-18T03:42:49;17.70;99.90
78550;DHT22;68091;52.130;5.570;2023-09-18T03:45:17;17.70;99.90
78550;DHT22;68091;52.130;5.570;2023-09-18T03:47:44;17.70;99.90
78550;DHT22;68091;52.130;5.570;2023-09-18T03:50:13;17.70;99.90
78550;DHT22;68091;52.130;5.570;2023-09-18T03:52:38;17.80;99.90
78550;DHT22;68091;52.130;5.570;2023-09-18T03:55:05;17.80;99.90
78550;DHT22;68091;52.130;5.570;2023-09-18T03:57:31;17.80;99.90
78550;DHT22;68091;52.130;5.570;2023-09-18T03:59:56;17.90;99.90
78550;DHT22;68091;52.130;5.570;2023-09-18T04:02:23;18.00;99.90
78550;DHT22;68091;52.130;5.570;2023-09-18T04:04:52;18.00;99.90
78550;DHT22;68091;52.130;5.570;2023-09-18T04:07:18;18.00;99.90
78550;DHT22;68091;52.130;5.570;2023-09-18T04:09:45;18.10;99.90
78550;DHT22;68091;52.130;5.570;2023-09-18T04:12:10;18.10;99.90
78550;DHT22;68091;52.130;5.570;2023-09-18T04:14:36;18.10;99.90
78550;DHT22;68091;52.130;5.570;2023-09-18T04:17:01;18.20;99.90
78550;DHT22;68091;52.130;5.570;2023-09-18T04:19:27;18.20;99.90
78550;DHT22;68091;52.130;5.570;2023-09-18T04:21:53;18.20;99.90
78550;DHT22;68091;52.130;5.570;2023-09-18T04:24:18;18.20;99.90
78550;DHT22;68091;52.130;5.570;2023-09-18T04:26:44;18.20;99.90
78550;DHT22;68091;52.130;5.570;2023-09-18T04:29:09;18.20;99.90
78550;DHT22;68091;52.130;5.570;2023-09-18T04:31:35;18.30;99.90
78550;DHT22;68091;52.130;5.570;2023-09-18T04:34:00;18.20;99.90
78550;DHT22;68091;52.130;5.570;2023-09-18T04:36:27;18.30;99.90
78550;DHT22;68091;52.130;5.570;2023-09-18T04:38:52;18.30;99.90
78550;DHT22;68091;52.130;5.570;2023-09-18T04:41:19;18.30;99.90
78550;DHT22;68091;52.130;5.570;2023-09-18T04:43:44;18.30;99.90
78550;DHT22;68091;52.130;5.570;2023-09-18T04:46:10;18.40;99.90
78550;DHT22;68091;52.130;5.570;2023-09-18T04:48:36;18.30;99.90
78550;DHT22;68091;52.130;5.570;2023-09-18T04:51:03;18.30;99.90
78550;DHT22;68091;52.130;5.570;2023-09-18T04:53:29;18.30;99.90
78550;DHT22;68091;52.130;5.570;2023-09-18T04:55:55;18.30;99.90
78550;DHT22;68091;52.130;5.570;2023-09-18T04:58:21;18.30;99.90
78550;DHT22;68091;52.130;5.570;2023-09-18T05:00:53;18.40;99.90
78550;DHT22;68091;52.130;5.570;2023-09-18T05:03:18;18.40;99.90
78550;DHT22;68091;52.130;5.570;2023-09-18T05:05:44;18.50;99.90
78550;DHT22;68091;52.130;5.570;2023-09-18T05:08:10;18.60;99.90
78550;DHT22;68091;52.130;5.570;2023-09-18T05:10:38;18.60;99.90
78550;DHT22;68091;52.130;5.570;2023-09-18T05:13:04;18.60;99.90
78550;DHT22;68091;52.130;5.570;2023-09-18T05:15:29;18.70;99.90
78550;DHT22;68091;52.130;5.570;2023-09-18T05:17:55;18.60;99.90
78550;DHT22;68091;52.130;5.570;2023-09-18T05:20:23;18.60;99.90
78550;DHT22;68091;52.130;5.570;2023-09-18T05:22:53;18.50;99.90
78550;DHT22;68091;52.130;5.570;2023-09-18T05:25:19;18.50;99.90
78550;DHT22;68091;52.130;5.570;2023-09-18T05:27:47;18.50;99.90
78550;DHT22;68091;52.130;5.570;2023-09-18T05:30:19;18.50;99.90
78550;DHT22;68091;52.130;5.570;2023-09-18T05:32:48;18.40;99.90
78550;DHT22;68091;52.130;5.570;2023-09-18T05:35:14;18.40;99.90
78550;DHT22;68091;52.130;5.570;2023-09-18T05:37:40;18.40;99.90
78550;DHT22;68091;52.130;5.570;2023-09-18T05:40:06;18.40;99.90
78550;DHT22;68091;52.130;5.570;2023-09-18T05:42:37;18.40;99.90
78550;DHT22;68091;52.130;5.570;2023-09-18T05:45:03;18.40;99.90
78550;DHT22;68091;52.130;5.570;2023-09-18T05:47:32;18.40;99.90
78550;DHT22;68091;52.130;5.570;2023-09-18T05:49:58;18.40;99.90
78550;DHT22;68091;52.130;5.570;2023-09-18T05:52:23;18.40;99.90
78550;DHT22;68091;52.130;5.570;2023-09-18T05:54:50;18.40;99.90
78550;DHT22;68091;52.130;5.570;2023-09-18T05:57:17;18.30;99.90
78550;DHT22;68091;52.130;5.570;2023-09-18T05:59:42;18.40;99.90
78550;DHT22;68091;52.130;5.570;2023-09-18T06:02:10;18.30;99.90
78550;DHT22;68091;52.130;5.570;2023-09-18T06:04:45;18.30;99.90
78550;DHT22;68091;52.130;5.570;2023-09-18T06:10:44;18.20;99.90
78550;DHT22;68091;52.130;5.570;2023-09-18T06:13:10;18.40;99.90
78550;DHT22;68091;52.130;5.570;2023-09-18T06:15:36;18.40;99.90
78550;DHT22;68091;52.130;5.570;2023-09-18T06:18:02;18.40;99.90
78550;DHT22;68091;52.130;5.570;2023-09-18T06:20:28;18.40;99.90
78550;DHT22;68091;52.130;5.570;2023-09-18T06:22:54;18.40;99.90
78550;DHT22;68091;52.130;5.570;2023-09-18T06:25:19;18.40;99.90
78550;DHT22;68091;52.130;5.570;2023-09-18T06:27:46;18.50;99.90
78550;DHT22;68091;52.130;5.570;2023-09-18T06:30:11;18.50;99.90
78550;DHT22;68091;52.130;5.570;2023-09-18T06:32:37;18.60;99.90
78550;DHT22;68091;52.130;5.570;2023-09-18T06:35:02;18.50;99.90
78550;DHT22;68091;52.130;5.570;2023-09-18T06:37:28;18.60;99.90
78550;DHT22;68091;52.130;5.570;2023-09-18T06:39:54;18.60;99.90
78550;DHT22;68091;52.130;5.570;2023-09-18T06:42:20;18.60;99.90
78550;DHT22;68091;52.130;5.570;2023-09-18T06:44:45;18.60;99.90
78550;DHT22;68091;52.130;5.570;2023-09-18T06:47:23;18.60;99.90
78550;DHT22;68091;52.130;5.570;2023-09-18T06:50:10;18.60;99.90
78550;DHT22;68091;52.130;5.570;2023-09-18T06:52:52;18.60;99.90
78550;DHT22;68091;52.130;5.570;2023-09-18T06:55:18;18.70;99.90
78550;DHT22;68091;52.130;5.570;2023-09-18T06:57:50;18.60;99.90
78550;DHT22;68091;52.130;5.570;2023-09-18T07:00:17;18.70;99.90
78550;DHT22;68091;52.130;5.570;2023-09-18T07:02:46;18.70;99.90
78550;DHT22;68091;52.130;5.570;2023-09-18T07:05:12;18.80;99.90
78550;DHT22;68091;52.130;5.570;2023-09-18T07:07:37;18.80;99.90
78550;DHT22;68091;52.130;5.570;2023-09-18T07:10:03;18.80;99.90
78550;DHT22;68091;52.130;5.570;2023-09-18T07:12:32;18.90;99.90
78550;DHT22;68091;52.130;5.570;2023-09-18T07:18:10;18.90;99.90
78550;DHT22;68091;52.130;5.570;2023-09-18T07:20:52;19.00;99.90
78550;DHT22;68091;52.130;5.570;2023-09-18T07:23:36;19.00;99.90
78550;DHT22;68091;52.130;5.570;2023-09-18T07:26:03;19.10;99.90
78550;DHT22;68091;52.130;5.570;2023-09-18T07:28:28;19.00;99.90
78550;DHT22;68091;52.130;5.570;2023-09-18T07:30:54;19.10;99.90
78550;DHT22;68091;52.130;5.570;2023-09-18T07:33:20;19.20;99.90
78550;DHT22;68091;52.130;5.570;2023-09-18T07:35:54;19.10;99.90
78550;DHT22;68091;52.130;5.570;2023-09-18T07:38:26;19.00;99.90
78550;DHT22;68091;52.130;5.570;2023-09-18T07:41:00;19.10;99.90
78550;DHT22;68091;52.130;5.570;2023-09-18T07:43:29;19.20;99.90
78550;DHT22;68091;52.130;5.570;2023-09-18T07:46:01;19.10;99.90
78550;DHT22;68091;52.130;5.570;2023-09-18T07:48:27;19.00;99.90
78550;DHT22;68091;52.130;5.570;2023-09-18T07:50:53;19.10;99.90
78550;DHT22;68091;52.130;5.570;2023-09-18T07:53:20;19.10;99.90
78550;DHT22;68091;52.130;5.570;2023-09-18T07:55:45;19.20;99.90
78550;DHT22;68091;52.130;5.570;2023-09-18T07:58:11;19.20;99.90
78550;DHT22;68091;52.130;5.570;2023-09-18T08:00:37;19.20;99.90
78550;DHT22;68091;52.130;5.570;2023-09-18T08:03:02;19.30;99.90
78550;DHT22;68091;52.130;5.570;2023-09-18T08:05:28;19.30;99.90
78550;DHT22;68091;52.130;5.570;2023-09-18T08:07:55;19.30;99.90
78550;DHT22;68091;52.130;5.570;2023-09-18T08:10:22;19.40;99.90
78550;DHT22;68091;52.130;5.570;2023-09-18T08:12:48;19.40;99.90
78550;DHT22;68091;52.130;5.570;2023-09-18T08:15:15;19.50;99.90
78550;DHT22;68091;52.130;5.570;2023-09-18T08:17:40;19.50;99.90
78550;DHT22;68091;52.130;5.570;2023-09-18T08:20:07;19.50;99.90
78550;DHT22;68091;52.130;5.570;2023-09-18T08:22:38;19.50;99.90
78550;DHT22;68091;52.130;5.570;2023-09-18T08:25:05;19.50;99.90
78550;DHT22;68091;52.130;5.570;2023-09-18T08:27:39;19.50;99.90
78550;DHT22;68091;52.130;5.570;2023-09-18T08:30:10;19.50;99.90
78550;DHT22;68091;52.130;5.570;2023-09-18T08:32:36;19.50;99.90
78550;DHT22;68091;52.130;5.570;2023-09-18T08:35:02;19.40;99.90
78550;DHT22;68091;52.130;5.570;2023-09-18T08:37:29;19.40;99.90
78550;DHT22;68091;52.130;5.570;2023-09-18T08:39:54;19.40;99.90
78550;DHT22;68091;52.130;5.570;2023-09-18T08:42:20;19.30;99.90
78550;DHT22;68091;52.130;5.570;2023-09-18T08:44:46;19.40;99.90
78550;DHT22;68091;52.130;5.570;2023-09-18T08:47:17;19.40;99.90
78550;DHT22;68091;52.130;5.570;2023-09-18T08:49:49;19.40;99.90
78550;DHT22;68091;52.130;5.570;2023-09-18T08:52:21;19.50;99.90
78550;DHT22;68091;52.130;5.570;2023-09-18T08:54:48;19.50;99.90
78550;DHT22;68091;52.130;5.570;2023-09-18T08:57:14;19.60;99.90
78550;DHT22;68091;52.130;5.570;2023-09-18T08:59:40;19.60;99.90
78550;DHT22;68091;52.130;5.570;2023-09-18T09:02:07;19.60;99.90
78550;DHT22;68091;52.130;5.570;2023-09-18T09:04:35;19.50;99.90
78550;DHT22;68091;52.130;5.570;2023-09-18T09:07:02;19.60;99.90
78550;DHT22;68091;52.130;5.570;2023-09-18T09:09:28;19.60;99.90
78550;DHT22;68091;52.130;5.570;2023-09-18T09:11:56;19.60;99.90
78550;DHT22;68091;52.130;5.570;2023-09-18T09:14:22;19.70;99.90
78550;DHT22;68091;52.130;5.570;2023-09-18T09:16:53;19.70;99.90
78550;DHT22;68091;52.130;5.570;2023-09-18T09:19:27;19.80;99.90
78550;DHT22;68091;52.130;5.570;2023-09-18T09:21:53;19.80;99.90
78550;DHT22;68091;52.130;5.570;2023-09-18T09:24:26;19.90;99.90
78550;DHT22;68091;52.130;5.570;2023-09-18T09:27:00;19.80;99.90
78550;DHT22;68091;52.130;5.570;2023-09-18T09:29:28;19.90;99.90
78550;DHT22;68091;52.130;5.570;2023-09-18T09:31:55;19.90;99.90
78550;DHT22;68091;52.130;5.570;2023-09-18T09:34:25;20.10;99.90
78550;DHT22;68091;52.130;5.570;2023-09-18T09:36:55;20.30;99.90
78550;DHT22;68091;52.130;5.570;2023-09-18T09:39:21;20.30;99.90
78550;DHT22;68091;52.130;5.570;2023-09-18T09:41:53;20.30;99.90
78550;DHT22;68091;52.130;5.570;2023-09-18T09:44:19;20.40;99.90
78550;DHT22;68091;52.130;5.570;2023-09-18T09:46:46;20.40;99.90
78550;DHT22;68091;52.130;5.570;2023-09-18T09:49:12;20.30;99.90
78550;DHT22;68091;52.130;5.570;2023-09-18T09:51:40;20.50;99.90
78550;DHT22;68091;52.130;5.570;2023-09-18T09:54:07;20.60;99.90
78550;DHT22;68091;52.130;5.570;2023-09-18T09:56:40;20.70;99.90
78550;DHT22;68091;52.130;5.570;2023-09-18T09:59:06;20.80;99.90
78550;DHT22;68091;52.130;5.570;2023-09-18T10:01:35;20.80;99.90
78550;DHT22;68091;52.130;5.570;2023-09-18T10:04:03;20.60;99.90
78550;DHT22;68091;52.130;5.570;2023-09-18T10:06:33;20.50;99.90
78550;DHT22;68091;52.130;5.570;2023-09-18T10:08:59;20.60;99.90
78550;DHT22;68091;52.130;5.570;2023-09-18T10:11:25;20.60;99.90
78550;DHT22;68091;52.130;5.570;2023-09-18T10:14:04;20.50;99.90
78550;DHT22;68091;52.130;5.570;2023-09-18T10:16:32;20.50;99.90
78550;DHT22;68091;52.130;5.570;2023-09-18T10:24:10;20.30;99.90
78550;DHT22;68091;52.130;5.570;2023-09-18T10:26:40;20.30;99.90
78550;DHT22;68091;52.130;5.570;2023-09-18T10:29:06;20.40;99.90
78550;DHT22;68091;52.130;5.570;2023-09-18T10:31:34;20.40;99.90
78550;DHT22;68091;52.130;5.570;2023-09-18T10:34:02;20.50;99.90
78550;DHT22;68091;52.130;5.570;2023-09-18T10:36:29;20.50;99.90
78550;DHT22;68091;52.130;5.570;2023-09-18T10:38:55;20.50;99.90
78550;DHT22;68091;52.130;5.570;2023-09-18T10:41:21;20.40;99.90
78550;DHT22;68091;52.130;5.570;2023-09-18T10:43:57;20.50;99.90
78550;DHT22;68091;52.130;5.570;2023-09-18T10:46:29;20.60;99.90
78550;DHT22;68091;52.130;5.570;2023-09-18T10:48:54;20.80;99.90
78550;DHT22;68091;52.130;5.570;2023-09-18T10:51:21;21.00;99.90
78550;DHT22;68091;52.130;5.570;2023-09-18T10:53:50;21.00;99.90
78550;DHT22;68091;52.130;5.570;2023-09-18T10:56:26;21.20;99.90
78550;DHT22;68091;52.130;5.570;2023-09-18T10:59:02;21.50;99.90
78550;DHT22;68091;52.130;5.570;2023-09-18T11:01:31;21.60;99.90
78550;DHT22;68091;52.130;5.570;2023-09-18T11:04:07;21.30;99.90
78550;DHT22;68091;52.130;5.570;2023-09-18T11:09:45;21.10;99.90
78550;DHT22;68091;52.130;5.570;2023-09-18T11:12:11;21.30;99.90
78550;DHT22;68091;52.130;5.570;2023-09-18T11:14:42;21.40;99.90
78550;DHT22;68091;52.130;5.570;2023-09-18T11:17:38;21.30;99.90
78550;DHT22;68091;52.130;5.570;2023-09-18T11:20:15;21.50;99.90
78550;DHT22;68091;52.130;5.570;2023-09-18T11:23:24;21.50;99.90
78550;DHT22;68091;52.130;5.570;2023-09-18T11:25:38;21.40;99.90
78550;DHT22;68091;52.130;5.570;2023-09-18T11:28:11;21.20;99.90
78550;DHT22;68091;52.130;5.570;2023-09-18T11:30:38;21.10;99.90
78550;DHT22;68091;52.130;5.570;2023-09-18T11:33:06;21.10;99.90
78550;DHT22;68091;52.130;5.570;2023-09-18T11:35:56;21.00;99.90
78550;DHT22;68091;52.130;5.570;2023-09-18T11:38:21;20.90;99.90
78550;DHT22;68091;52.130;5.570;2023-09-18T11:40:48;20.90;99.90
78550;DHT22;68091;52.130;5.570;2023-09-18T11:43:25;21.20;99.90
78550;DHT22;68091;52.130;5.570;2023-09-18T11:45:51;21.40;99.90
78550;DHT22;68091;52.130;5.570;2023-09-18T11:48:19;21.30;99.90
78550;DHT22;68091;52.130;5.570;2023-09-18T11:50:45;21.30;99.90
78550;DHT22;68091;52.130;5.570;2023-09-18T11:53:13;21.30;99.90
78550;DHT22;68091;52.130;5.570;2023-09-18T11:55:39;21.20;99.90
78550;DHT22;68091;52.130;5.570;2023-09-18T11:58:05;21.30;99.90
78550;DHT22;68091;52.130;5.570;2023-09-18T12:00:31;21.30;99.90
78550;DHT22;68091;52.130;5.570;2023-09-18T12:03:19;21.40;99.90
78550;DHT22;68091;52.130;5.570;2023-09-18T12:06:00;21.50;99.90
78550;DHT22;68091;52.130;5.570;2023-09-18T12:08:26;21.50;99.90
78550;DHT22;68091;52.130;5.570;2023-09-18T12:10:55;21.40;99.90
78550;DHT22;68091;52.130;5.570;2023-09-18T12:13:20;21.30;99.90
78550;DHT22;68091;52.130;5.570;2023-09-18T12:15:47;21.30;99.90
78550;DHT22;68091;52.130;5.570;2023-09-18T12:18:13;21.30;99.90
78550;DHT22;68091;52.130;5.570;2023-09-18T12:20:46;21.30;99.90
78550;DHT22;68091;52.130;5.570;2023-09-18T12:23:12;21.20;99.90
78550;DHT22;68091;52.130;5.570;2023-09-18T12:25:38;21.30;99.90
78550;DHT22;68091;52.130;5.570;2023-09-18T12:28:13;21.50;99.90
78550;DHT22;68091;52.130;5.570;2023-09-18T12:30:40;21.60;99.90
78550;DHT22;68091;52.130;5.570;2023-09-18T12:33:06;21.60;99.90
78550;DHT22;68091;52.130;5.570;2023-09-18T12:35:34;21.60;99.90
78550;DHT22;68091;52.130;5.570;2023-09-18T12:38:00;21.70;99.90
78550;DHT22;68091;52.130;5.570;2023-09-18T12:40:27;21.80;99.90
78550;DHT22;68091;52.130;5.570;2023-09-18T12:42:56;22.10;99.90
78550;DHT22;68091;52.130;5.570;2023-09-18T12:45:25;22.30;99.90
78550;DHT22;68091;52.130;5.570;2023-09-18T12:47:51;22.40;99.90
78550;DHT22;68091;52.130;5.570;2023-09-18T12:50:20;22.30;99.90
78550;DHT22;68091;52.130;5.570;2023-09-18T12:52:46;22.20;99.90
78550;DHT22;68091;52.130;5.570;2023-09-18T12:55:24;22.30;99.90
78550;DHT22;68091;52.130;5.570;2023-09-18T12:57:51;22.10;99.90
78550;DHT22;68091;52.130;5.570;2023-09-18T13:00:18;22.20;99.90
78550;DHT22;68091;52.130;5.570;2023-09-18T13:02:45;22.30;99.90
78550;DHT22;68091;52.130;5.570;2023-09-18T13:05:11;22.40;99.90
78550;DHT22;68091;52.130;5.570;2023-09-18T13:07:43;22.30;99.90
78550;DHT22;68091;52.130;5.570;2023-09-18T13:10:10;22.40;99.90
78550;DHT22;68091;52.130;5.570;2023-09-18T13:12:51;22.40;99.90
78550;DHT22;68091;52.130;5.570;2023-09-18T13:15:26;22.30;99.90
78550;DHT22;68091;52.130;5.570;2023-09-18T13:17:55;22.40;99.90
78550;DHT22;68091;52.130;5.570;2023-09-18T13:20:27;22.70;99.90
78550;DHT22;68091;52.130;5.570;2023-09-18T13:22:55;23.20;99.90
78550;DHT22;68091;52.130;5.570;2023-09-18T13:25:30;23.10;99.90
78550;DHT22;68091;52.130;5.570;2023-09-18T13:28:02;22.60;99.90
78550;DHT22;68091;52.130;5.570;2023-09-18T13:30:31;22.90;99.90
78550;DHT22;68091;52.130;5.570;2023-09-18T13:33:03;23.10;99.90
78550;DHT22;68091;52.130;5.570;2023-09-18T13:35:32;22.70;99.90
78550;DHT22;68091;52.130;5.570;2023-09-18T13:38:01;22.50;99.90
78550;DHT22;68091;52.130;5.570;2023-09-18T13:40:29;22.60;99.90
78550;DHT22;68091;52.130;5.570;2023-09-18T13:42:55;23.20;99.90
78550;DHT22;68091;52.130;5.570;2023-09-18T13:45:21;23.90;99.90
78550;DHT22;68091;52.130;5.570;2023-09-18T13:47:46;24.10;99.90
78550;DHT22;68091;52.130;5.570;2023-09-18T13:50:14;23.90;99.90
78550;DHT22;68091;52.130;5.570;2023-09-18T13:52:40;23.50;99.90
78550;DHT22;68091;52.130;5.570;2023-09-18T13:55:05;23.40;99.90
78550;DHT22;68091;52.130;5.570;2023-09-18T13:57:31;23.30;99.90
78550;DHT22;68091;52.130;5.570;2023-09-18T13:59:57;23.20;99.90
78550;DHT22;68091;52.130;5.570;2023-09-18T14:02:23;23.20;99.90
78550;DHT22;68091;52.130;5.570;2023-09-18T14:04:52;23.00;99.90
78550;DHT22;68091;52.130;5.570;2023-09-18T14:07:18;22.80;99.90
78550;DHT22;68091;52.130;5.570;2023-09-18T14:09:43;22.90;99.90
78550;DHT22;68091;52.130;5.570;2023-09-18T14:12:14;22.70;99.90
78550;DHT22;68091;52.130;5.570;2023-09-18T14:14:43;22.60;99.90
78550;DHT22;68091;52.130;5.570;2023-09-18T14:17:09;22.40;99.90
78550;DHT22;68091;52.130;5.570;2023-09-18T14:19:35;22.50;99.90
78550;DHT22;68091;52.130;5.570;2023-09-18T14:22:03;22.50;99.90
78550;DHT22;68091;52.130;5.570;2023-09-18T14:24:30;22.70;99.90
78550;DHT22;68091;52.130;5.570;2023-09-18T14:26:56;22.80;99.90
78550;DHT22;68091;52.130;5.570;2023-09-18T14:29:22;23.00;99.90
78550;DHT22;68091;52.130;5.570;2023-09-18T14:31:47;23.10;99.90
78550;DHT22;68091;52.130;5.570;2023-09-18T14:34:13;23.00;99.90
78550;DHT22;68091;52.130;5.570;2023-09-18T14:36:42;22.80;99.90
78550;DHT22;68091;52.130;5.570;2023-09-18T14:39:09;22.70;99.90
78550;DHT22;68091;52.130;5.570;2023-09-18T14:41:35;22.70;99.90
78550;DHT22;68091;52.130;5.570;2023-09-18T14:44:01;22.60;99.90
78550;DHT22;68091;52.130;5.570;2023-09-18T14:46:28;22.40;99.90
78550;DHT22;68091;52.130;5.570;2023-09-18T14:48:54;22.30;99.90
78550;DHT22;68091;52.130;5.570;2023-09-18T14:51:20;22.20;99.90
78550;DHT22;68091;52.130;5.570;2023-09-18T14:53:45;22.10;99.90
78550;DHT22;68091;52.130;5.570;2023-09-18T14:56:11;22.00;99.90
78550;DHT22;68091;52.130;5.570;2023-09-18T14:58:52;21.90;99.90
78550;DHT22;68091;52.130;5.570;2023-09-18T15:01:18;21.90;99.90
78550;DHT22;68091;52.130;5.570;2023-09-18T15:03:45;21.90;99.90
78550;DHT22;68091;52.130;5.570;2023-09-18T15:06:12;21.80;99.90
78550;DHT22;68091;52.130;5.570;2023-09-18T15:08:37;21.80;99.90
78550;DHT22;68091;52.130;5.570;2023-09-18T15:11:03;21.80;99.90
78550;DHT22;68091;52.130;5.570;2023-09-18T15:13:29;21.70;99.90
78550;DHT22;68091;52.130;5.570;2023-09-18T15:15:55;21.60;99.90
78550;DHT22;68091;52.130;5.570;2023-09-18T15:18:21;21.60;99.90
78550;DHT22;68091;52.130;5.570;2023-09-18T15:20:47;21.30;99.90
78550;DHT22;68091;52.130;5.570;2023-09-18T15:23:13;20.80;99.90
78550;DHT22;68091;52.130;5.570;2023-09-18T15:25:39;20.20;99.90
78550;DHT22;68091;52.130;5.570;2023-09-18T15:28:06;19.70;99.90
78550;DHT22;68091;52.130;5.570;2023-09-18T15:30:32;19.00;99.90
78550;DHT22;68091;52.130;5.570;2023-09-18T15:32:57;18.40;99.90
78550;DHT22;68091;52.130;5.570;2023-09-18T15:35:24;17.90;99.90
78550;DHT22;68091;52.130;5.570;2023-09-18T15:37:50;17.70;99.90
78550;DHT22;68091;52.130;5.570;2023-09-18T15:40:16;17.40;99.90
78550;DHT22;68091;52.130;5.570;2023-09-18T15:42:44;17.20;99.90
78550;DHT22;68091;52.130;5.570;2023-09-18T15:45:10;17.10;99.90
78550;DHT22;68091;52.130;5.570;2023-09-18T15:47:45;17.00;99.90
78550;DHT22;68091;52.130;5.570;2023-09-18T15:50:11;16.90;99.90